createdAt,value
2022-08-05T00:01:30.091Z,101615.00
2022-08-05T00:04:03.799Z,101624.31
2022-08-05T00:06:33.197Z,101626.28
2022-08-05T00:09:02.620Z,101630.19
2022-08-05T00:11:30.347Z,101631.13
2022-08-05T00:14:02.313Z,101638.50
2022-08-05T00:16:52.612Z,101634.31
2022-08-05T00:19:24.975Z,101631.38
2022-08-05T00:21:59.438Z,101620.31
2022-08-05T00:24:30.932Z,101625.72
2022-08-05T00:26:58.958Z,101614.41
2022-08-05T00:29:26.048Z,101619.06
2022-08-05T00:32:13.127Z,101629.09
2022-08-05T00:35:05.780Z,101622.22
2022-08-05T00:37:35.908Z,101614.13
2022-08-05T00:40:27.571Z,101615.34
2022-08-05T00:42:56.697Z,101619.53
2022-08-05T00:45:25.023Z,101622.44
2022-08-05T00:48:09.304Z,101622.91
2022-08-05T00:50:37.011Z,101611.84
2022-08-05T00:53:03.653Z,101620.91
2022-08-05T00:55:42.870Z,101621.38
2022-08-05T00:58:16.793Z,101626.78
2022-08-05T01:00:47.103Z,101632.66
2022-08-05T01:03:23.012Z,101627.47
2022-08-05T01:05:54.533Z,101625.97
2022-08-05T01:08:40.219Z,101621.06
2022-08-05T01:11:24.107Z,101618.78
2022-08-05T01:13:59.977Z,101621.22
2022-08-05T01:16:51.023Z,101633.47
2022-08-05T01:19:30.141Z,101632.00
2022-08-05T01:22:34.286Z,101632.00
2022-08-05T01:25:40.754Z,101631.72
2022-08-05T01:28:26.091Z,101641.53
2022-08-05T01:30:59.105Z,101634.66
2022-08-05T01:33:35.440Z,101630.47
2022-08-05T01:36:12.715Z,101638.31
2022-08-05T01:38:45.566Z,101638.31
2022-08-05T01:41:14.757Z,101630.88
2022-08-05T01:43:42.215Z,101640.19
2022-08-05T01:46:16.304Z,101657.59
2022-08-05T01:48:58.526Z,101654.16
2022-08-05T01:51:30.002Z,101656.84
2022-08-05T01:53:58.969Z,101663.72
2022-08-05T01:58:09.773Z,101669.31
2022-08-05T01:59:19.556Z,101663.19
2022-08-05T02:01:50.041Z,101644.78
2022-08-05T02:04:19.424Z,101649.13
2022-08-05T02:06:46.145Z,101645.69
2022-08-05T02:09:14.723Z,101651.56
2022-08-05T02:12:10.102Z,101646.91
2022-08-05T02:14:47.083Z,101645.44
2022-08-05T02:18:28.725Z,101635.31
2022-08-05T02:20:22.174Z,101646.56
2022-08-05T02:22:56.562Z,101644.81
2022-08-05T02:25:32.956Z,101655.59
2022-08-05T02:28:02.300Z,101642.59
2022-08-05T02:30:54.186Z,101649.66
2022-08-05T02:33:24.338Z,101638.84
2022-08-05T02:36:03.635Z,101642.94
2022-08-05T02:38:35.166Z,101642.94
2022-08-05T02:41:06.432Z,101642.94
2022-08-05T02:44:06.416Z,101626.50
2022-08-05T02:46:33.903Z,101632.84
2022-08-05T02:49:01.681Z,101637.97
2022-08-05T02:52:02.854Z,101632.28
2022-08-05T02:54:36.019Z,101635.94
2022-08-05T02:57:10.224Z,101635.94
2022-08-05T02:59:54.195Z,101637.13
2022-08-05T03:02:24.663Z,101621.91
2022-08-05T03:04:55.332Z,101619.88
2022-08-05T03:07:40.567Z,101623.50
2022-08-05T03:10:10.491Z,101633.56
2022-08-05T03:12:40.062Z,101636.97
2022-08-05T03:15:10.155Z,101640.41
2022-08-05T03:17:41.455Z,101634.56
2022-08-05T03:20:10.074Z,101643.84
2022-08-05T03:22:36.977Z,101651.94
2022-08-05T03:25:31.853Z,101648.97
2022-08-05T03:27:58.884Z,101654.09
2022-08-05T03:30:33.656Z,101639.41
2022-08-05T03:33:06.023Z,101634.75
2022-08-05T03:35:34.025Z,101634.75
2022-08-05T03:38:11.222Z,101635.97
2022-08-05T03:40:45.140Z,101633.47
2022-08-05T03:43:58.707Z,101633.94
2022-08-05T03:46:01.958Z,101640.28
2022-08-05T03:48:29.695Z,101637.59
2022-08-05T03:52:50.354Z,101650.31
2022-08-05T03:55:52.265Z,101648.84
2022-08-05T03:56:46.304Z,101652.75
2022-08-05T03:59:26.059Z,101653.22
2022-08-05T04:01:59.005Z,101652.19
2022-08-05T04:04:26.963Z,101655.63
2022-08-05T04:06:54.784Z,101651.44
2022-08-05T04:09:26.359Z,101644.59
2022-08-05T04:11:54.363Z,101639.94
2022-08-05T04:14:29.497Z,101645.78
2022-08-05T04:16:56.296Z,101648.22
2022-08-05T04:19:23.434Z,101648.13
2022-08-05T04:22:08.528Z,101654.25
2022-08-05T04:24:38.838Z,101655.94
2022-08-05T04:27:13.026Z,101655.38
2022-08-05T04:29:40.187Z,101659.28
2022-08-05T04:32:07.844Z,101658.34
2022-08-05T04:34:35.939Z,101657.31
2022-08-05T04:37:05.577Z,101663.44
2022-08-05T04:39:33.455Z,101660.75
2022-08-05T04:42:01.944Z,101655.38
2022-08-05T04:44:30.804Z,101659.28
2022-08-05T04:46:58.864Z,101651.66
2022-08-05T04:49:38.522Z,101646.09
2022-08-05T04:52:12.784Z,101656.13
2022-08-05T04:54:39.273Z,101660.00
2022-08-05T04:57:05.770Z,101659.00
2022-08-05T04:59:39.021Z,101665.13
2022-08-05T05:02:36.947Z,101656.31
2022-08-05T05:05:02.350Z,101655.09
2022-08-05T05:07:32.228Z,101657.50
2022-08-05T05:09:59.564Z,101663.38
2022-08-05T05:12:29.178Z,101668.00
2022-08-05T05:14:55.642Z,101665.31
2022-08-05T05:17:24.667Z,101668.75
2022-08-05T05:19:55.229Z,101671.53
2022-08-05T05:22:26.141Z,101670.41
2022-08-05T05:24:59.888Z,101671.91
2022-08-05T05:27:44.969Z,101672.63
2022-08-05T05:30:29.316Z,101677.78
2022-08-05T05:33:00.396Z,101670.66
2022-08-05T05:35:34.283Z,101666.50
2022-08-05T05:38:06.365Z,101673.22
2022-08-05T05:40:35.950Z,101663.56
2022-08-05T05:43:03.192Z,101664.81
2022-08-05T05:45:30.063Z,101672.84
2022-08-05T05:48:06.178Z,101674.22
2022-08-05T05:50:43.814Z,101685.94
2022-08-05T05:53:21.570Z,101679.78
2022-08-05T05:55:52.311Z,101673.38
2022-08-05T05:58:31.484Z,101681.69
2022-08-05T06:01:02.444Z,101690.69
2022-08-05T06:04:00.756Z,101691.78
2022-08-05T06:06:31.275Z,101690.38
2022-08-05T06:08:59.869Z,101688.91
2022-08-05T06:11:26.326Z,101691.84
2022-08-05T06:13:56.121Z,101683.69
2022-08-05T06:16:30.749Z,101689.25
2022-08-05T06:19:00.000Z,101692.84
2022-08-05T06:21:36.491Z,101697.72
2022-08-05T06:24:11.929Z,101700.97
2022-08-05T06:26:51.078Z,101705.69
2022-08-05T06:29:25.481Z,101712.03
2022-08-05T06:32:21.161Z,101703.94
2022-08-05T06:34:56.539Z,101700.53
2022-08-05T06:37:56.894Z,101704.97
2022-08-05T06:40:12.559Z,101705.94
2022-08-05T06:42:40.381Z,101706.94
2022-08-05T06:45:09.164Z,101701.78
2022-08-05T06:48:36.592Z,101706.22
2022-08-05T06:50:23.615Z,101714.56
2022-08-05T06:52:58.839Z,101723.19
2022-08-05T06:55:36.223Z,101716.28
2022-08-05T06:58:30.067Z,101730.81
2022-08-05T07:00:50.624Z,101730.34
2022-08-05T07:03:17.363Z,101727.38
2022-08-05T07:05:44.386Z,101732.06
2022-08-05T07:08:13.048Z,101740.44
2022-08-05T07:10:53.012Z,101736.00
2022-08-05T07:13:57.611Z,101748.56
2022-08-05T07:17:57.334Z,101742.41
2022-08-05T07:22:16.965Z,101751.03
2022-08-05T07:24:44.050Z,101747.81
2022-08-05T07:27:19.285Z,101757.44
2022-08-05T07:30:22.803Z,101762.13
2022-08-05T07:32:38.886Z,101766.06
2022-08-05T07:35:55.813Z,101773.44
2022-08-05T07:37:56.575Z,101772.69
2022-08-05T07:40:32.331Z,101772.69
2022-08-05T07:43:04.686Z,101783.00
2022-08-05T07:45:57.428Z,101771.38
2022-08-05T07:49:00.667Z,101775.78
2022-08-05T07:51:08.698Z,101786.09
2022-08-05T07:53:51.817Z,101784.81
2022-08-05T07:57:01.237Z,101785.75
2022-08-05T07:59:05.027Z,101788.38
2022-08-05T08:01:35.129Z,101796.94
2022-08-05T08:04:07.951Z,101794.66
2022-08-05T08:06:34.464Z,101798.81
2022-08-05T08:09:00.923Z,101799.81
2022-08-05T08:11:47.569Z,101798.25
2022-08-05T08:14:19.091Z,101804.84
2022-08-05T08:16:51.056Z,101805.34
2022-08-05T08:20:22.835Z,101807.19
2022-08-05T08:22:08.994Z,101809.47
2022-08-05T08:24:51.157Z,101814.31
2022-08-05T08:27:18.666Z,101799.84
2022-08-05T08:30:05.898Z,101806.63
2022-08-05T08:32:36.143Z,101812.41
2022-08-05T08:35:13.550Z,101823.47
2022-08-05T08:37:40.432Z,101821.75
2022-08-05T08:40:12.570Z,101832.13
2022-08-05T08:42:50.649Z,101834.75
2022-08-05T08:45:26.780Z,101839.59
2022-08-05T08:48:12.428Z,101843.94
2022-08-05T08:51:03.438Z,101836.94
2022-08-05T08:53:37.862Z,101844.72
2022-08-05T08:56:10.783Z,101834.91
2022-08-05T08:58:47.500Z,101843.81
2022-08-05T09:01:15.997Z,101843.56
2022-08-05T09:03:46.263Z,101846.94
2022-08-05T09:06:18.539Z,101848.09
2022-08-05T09:08:47.508Z,101861.41
2022-08-05T09:11:15.229Z,101853.63
2022-08-05T09:14:10.232Z,101864.44
2022-08-05T09:16:29.733Z,101863.88
2022-08-05T09:18:56.276Z,101861.75
2022-08-05T09:22:22.561Z,101863.94
2022-08-05T09:24:15.582Z,101858.31
2022-08-05T09:26:46.306Z,101869.53
2022-08-05T09:29:18.750Z,101876.81
2022-08-05T09:32:40.301Z,101873.34
2022-08-05T09:34:55.749Z,101883.13
2022-08-05T09:38:18.484Z,101878.91
2022-08-05T09:40:40.920Z,101877.94
2022-08-05T09:43:28.015Z,101892.38
2022-08-05T09:46:27.775Z,101899.06
2022-08-05T09:49:08.064Z,101899.44
2022-08-05T09:51:49.907Z,101904.09
2022-08-05T09:54:28.882Z,101906.53
2022-08-05T09:56:55.751Z,101915.00
2022-08-05T09:59:24.502Z,101920.47
2022-08-05T10:01:57.785Z,101920.44
2022-08-05T10:04:35.777Z,101918.78
2022-08-05T10:07:14.127Z,101916.53
2022-08-05T10:10:14.544Z,101917.53
2022-08-05T10:12:56.615Z,101926.63
2022-08-05T10:15:25.831Z,101919.19
2022-08-05T10:18:17.269Z,101924.75
2022-08-05T10:20:48.357Z,101913.59
2022-08-05T10:23:59.008Z,101917.31
2022-08-05T10:26:24.450Z,101923.28
2022-08-05T10:28:59.108Z,101921.59
2022-08-05T10:32:52.468Z,101922.13
2022-08-05T10:34:12.233Z,101922.78
2022-08-05T10:36:41.605Z,101928.38
2022-08-05T10:39:25.216Z,101921.06
2022-08-05T10:42:13.340Z,101938.78
2022-08-05T10:44:45.174Z,101945.44
2022-08-05T10:47:26.665Z,101940.94
2022-08-05T10:50:32.277Z,101944.19
2022-08-05T10:53:00.961Z,101944.88
2022-08-05T10:55:27.655Z,101937.00
2022-08-05T10:58:08.278Z,101950.59
2022-08-05T11:00:35.798Z,101947.34
2022-08-05T11:03:25.054Z,101962.97
2022-08-05T11:06:15.930Z,101967.22
2022-08-05T11:09:13.237Z,101969.22
2022-08-05T11:11:52.382Z,101969.00
2022-08-05T11:15:11.544Z,101972.66
2022-08-05T11:17:57.163Z,101976.75
2022-08-05T11:20:41.603Z,101976.06
2022-08-05T11:23:26.262Z,101972.41
2022-08-05T11:26:28.280Z,101972.41
2022-08-05T11:29:11.917Z,101985.00
2022-08-05T11:31:54.532Z,101984.41
2022-08-05T11:34:52.148Z,101993.91
2022-08-05T11:38:30.972Z,102001.25
2022-08-05T11:41:12.676Z,102004.50
2022-08-05T11:44:05.559Z,102007.31
2022-08-05T11:47:09.380Z,102012.38
2022-08-05T11:49:38.574Z,102014.66
2022-08-05T11:52:11.824Z,102015.44
2022-08-05T11:54:40.361Z,102018.97
2022-08-05T11:57:25.440Z,102015.53
2022-08-05T11:59:53.486Z,102022.91
2022-08-05T12:02:30.068Z,102019.88
2022-08-05T12:04:59.497Z,102034.16
2022-08-05T12:08:10.192Z,102040.81
2022-08-05T12:10:19.384Z,102038.06
2022-08-05T12:12:58.275Z,102037.31
2022-08-05T12:15:38.590Z,102052.66
2022-08-05T12:18:10.986Z,102050.19
2022-08-05T12:20:39.172Z,102052.09
2022-08-05T12:23:10.207Z,102048.56
2022-08-05T12:25:53.705Z,102063.38
2022-08-05T12:28:37.824Z,102059.59
2022-08-05T12:31:05.015Z,102059.13
2022-08-05T12:33:36.237Z,102067.28
2022-08-05T12:36:08.097Z,102062.88
2022-08-05T12:38:39.573Z,102066.09
2022-08-05T12:41:13.274Z,102073.81
2022-08-05T12:43:55.074Z,102074.97
2022-08-05T12:46:31.373Z,102086.09
2022-08-05T12:49:13.566Z,102084.59
2022-08-05T12:52:12.897Z,102088.03
2022-08-05T12:54:36.054Z,102086.28
2022-08-05T12:57:09.299Z,102091.53
2022-08-05T13:01:57.858Z,102094.03
2022-08-05T13:02:39.978Z,102096.25
2022-08-05T13:05:08.288Z,102097.72
2022-08-05T13:07:59.393Z,102099.47
2022-08-05T13:10:26.409Z,102095.44
2022-08-05T13:12:58.036Z,102102.34
2022-08-05T13:15:35.898Z,102105.25
2022-08-05T13:18:08.415Z,102098.88
2022-08-05T13:20:35.531Z,102092.47
2022-08-05T13:23:09.805Z,102108.28
2022-08-05T13:25:51.650Z,102105.59
2022-08-05T13:28:22.723Z,102104.91
2022-08-05T13:30:51.188Z,102114.06
2022-08-05T13:34:22.895Z,102112.59
2022-08-05T13:36:06.111Z,102116.56
2022-08-05T13:38:36.251Z,102124.94
2022-08-05T13:41:05.939Z,102121.72
2022-08-05T13:43:44.047Z,102131.09
2022-08-05T13:46:30.637Z,102128.63
2022-08-05T13:49:10.586Z,102129.38
2022-08-05T13:51:41.276Z,102124.19
2022-08-05T13:54:15.075Z,102123.94
2022-08-05T13:56:51.169Z,102127.38
2022-08-05T13:59:24.603Z,102133.81
2022-08-05T14:01:58.166Z,102124.44
2022-08-05T14:04:49.996Z,102132.34
2022-08-05T14:07:55.487Z,102139.25
2022-08-05T14:10:08.349Z,102139.03
2022-08-05T14:12:35.374Z,102146.94
2022-08-05T14:16:03.970Z,102143.19
2022-08-05T14:17:48.315Z,102141.72
2022-08-05T14:20:17.478Z,102148.91
2022-08-05T14:22:49.976Z,102155.56
2022-08-05T14:25:22.424Z,102153.34
2022-08-05T14:27:49.526Z,102152.34
2022-08-05T14:30:20.299Z,102152.09
2022-08-05T14:32:48.668Z,102154.81
2022-08-05T14:35:15.160Z,102157.75
2022-08-05T14:37:45.233Z,102170.31
2022-08-05T14:40:17.084Z,102171.28
2022-08-05T14:42:44.122Z,102164.66
2022-08-05T14:45:10.833Z,102185.13
2022-08-05T14:48:02.870Z,102162.16
2022-08-05T14:50:25.210Z,102170.84
2022-08-05T14:52:56.968Z,102167.16
2022-08-05T14:55:28.557Z,102173.84
2022-08-05T14:58:12.054Z,102181.50
2022-08-05T15:00:58.416Z,102181.25
2022-08-05T15:03:33.769Z,102171.13
2022-08-05T15:06:14.977Z,102186.63
2022-08-05T15:09:01.186Z,102181.50
2022-08-05T15:11:51.628Z,102176.22
2022-08-05T15:14:20.054Z,102182.56
2022-08-05T15:17:00.515Z,102193.41
2022-08-05T15:19:27.089Z,102197.28
2022-08-05T15:21:54.441Z,102185.59
2022-08-05T15:24:26.982Z,102204.41
2022-08-05T15:26:53.466Z,102194.53
2022-08-05T15:29:22.704Z,102201.22
2022-08-05T15:31:52.992Z,102217.66
2022-08-05T15:34:32.126Z,102211.22
2022-08-05T15:37:06.386Z,102208.44
2022-08-05T15:41:00.016Z,102203.06
2022-08-05T15:42:53.909Z,102206.88
2022-08-05T15:45:14.993Z,102212.25
2022-08-05T15:47:42.866Z,102212.13
2022-08-05T15:50:15.242Z,102208.69
2022-08-05T15:52:53.498Z,102210.88
2022-08-05T15:55:25.134Z,102202.34
2022-08-05T15:58:08.860Z,102204.19
2022-08-05T16:00:50.711Z,102209.28
2022-08-05T16:03:22.825Z,102213.47
2022-08-05T16:05:52.635Z,102214.94
2022-08-05T16:08:19.364Z,102215.97
2022-08-05T16:10:45.868Z,102211.72
2022-08-05T16:13:12.567Z,102220.09
2022-08-05T16:15:51.683Z,102219.88
2022-08-05T16:18:18.680Z,102225.66
2022-08-05T16:20:46.335Z,102231.91
2022-08-05T16:23:12.838Z,102228.09
2022-08-05T16:25:39.933Z,102231.03
2022-08-05T16:28:09.485Z,102230.28
2022-08-05T16:30:39.150Z,102237.66
2022-08-05T16:33:08.048Z,102241.53
2022-08-05T16:35:42.220Z,102241.38
2022-08-05T16:38:23.969Z,102249.56
2022-08-05T16:41:00.866Z,102252.53
2022-08-05T16:43:31.073Z,102253.84
2022-08-05T16:46:06.537Z,102258.78
2022-08-05T16:48:38.536Z,102257.97
2022-08-05T16:51:09.203Z,102271.69
2022-08-05T16:54:03.049Z,102265.44
2022-08-05T16:56:24.666Z,102264.66
2022-08-05T16:58:51.413Z,102265.75
2022-08-05T17:01:18.763Z,102262.66
2022-08-05T17:03:45.882Z,102261.31
2022-08-05T17:06:13.063Z,102263.25
2022-08-05T17:08:53.111Z,102269.88
2022-08-05T17:11:23.743Z,102268.84
2022-08-05T17:14:00.594Z,102278.13
2022-08-05T17:16:37.707Z,102279.25
2022-08-05T17:19:07.669Z,102283.88
2022-08-05T17:21:37.015Z,102281.63
2022-08-05T17:24:14.310Z,102283.13
2022-08-05T17:26:53.247Z,102289.56
2022-08-05T17:29:22.755Z,102282.38
2022-08-05T17:31:59.457Z,102281.72
2022-08-05T17:34:29.829Z,102284.31
2022-08-05T17:36:58.912Z,102291.09
2022-08-05T17:39:34.680Z,102291.38
2022-08-05T17:42:20.234Z,102300.41
2022-08-05T17:44:50.129Z,102303.19
2022-08-05T17:47:22.186Z,102300.44
2022-08-05T17:50:00.319Z,102317.59
2022-08-05T17:52:32.129Z,102320.09
2022-08-05T17:54:58.844Z,102312.78
2022-08-05T17:57:25.384Z,102316.72
2022-08-05T18:00:03.363Z,102315.81
2022-08-05T18:02:35.499Z,102325.13
2022-08-05T18:05:06.928Z,102326.34
2022-08-05T18:07:41.988Z,102332.19
2022-08-05T18:10:11.257Z,102333.97
2022-08-05T18:12:38.804Z,102337.59
2022-08-05T18:15:06.231Z,102339.72
2022-08-05T18:17:58.926Z,102337.06
2022-08-05T18:20:29.669Z,102349.19
2022-08-05T18:23:11.859Z,102348.44
2022-08-05T18:25:44.888Z,102350.97
2022-08-05T18:28:16.081Z,102356.22
2022-08-05T18:30:52.615Z,102368.66
2022-08-05T18:33:22.587Z,102364.63
2022-08-05T18:36:03.376Z,102368.66
2022-08-05T18:38:36.988Z,102366.13
2022-08-05T18:41:58.150Z,102374.81
2022-08-05T18:43:53.521Z,102375.59
2022-08-05T18:46:20.819Z,102378.59
2022-08-05T18:48:51.903Z,102379.81
2022-08-05T18:52:05.877Z,102383.53
2022-08-05T18:54:28.498Z,102385.94
2022-08-05T18:57:02.294Z,102386.09
2022-08-05T18:59:44.279Z,102387.44
2022-08-05T19:02:28.010Z,102390.25
2022-08-05T19:05:02.516Z,102394.47
2022-08-05T19:07:47.999Z,102399.38
2022-08-05T19:10:16.181Z,102400.69
2022-08-05T19:12:44.061Z,102402.03
2022-08-05T19:15:56.617Z,102396.78
2022-08-05T19:18:09.589Z,102398.56
2022-08-05T19:20:46.718Z,102404.56
2022-08-05T19:24:03.588Z,102409.91
2022-08-05T19:26:02.567Z,102415.13
2022-08-05T19:28:30.707Z,102418.38
2022-08-05T19:30:57.484Z,102422.41
2022-08-05T19:33:33.984Z,102421.78
2022-08-05T19:36:06.266Z,102430.88
2022-08-05T19:38:35.946Z,102421.59
2022-08-05T19:41:07.245Z,102425.69
2022-08-05T19:44:06.580Z,102422.72
2022-08-05T19:46:30.122Z,102434.47
2022-08-05T19:49:03.469Z,102437.28
2022-08-05T19:52:08.323Z,102445.16
2022-08-05T19:54:29.687Z,102444.09
2022-08-05T19:57:06.553Z,102447.66
2022-08-05T20:00:01.884Z,102451.06
2022-08-05T20:02:23.876Z,102452.81
2022-08-05T20:04:54.709Z,102459.06
2022-08-05T20:07:45.816Z,102458.41
2022-08-05T20:10:13.513Z,102462.84
2022-08-05T20:12:46.146Z,102472.66
2022-08-05T20:15:48.193Z,102471.25
2022-08-05T20:18:33.133Z,102473.16
2022-08-05T20:20:57.028Z,102476.25
2022-08-05T20:23:39.749Z,102481.00
2022-08-05T20:26:16.439Z,102485.72
2022-08-05T20:28:52.726Z,102489.38
2022-08-05T20:31:36.988Z,102492.31
2022-08-05T20:34:15.010Z,102492.84
2022-08-05T20:36:43.216Z,102490.41
2022-08-05T20:39:12.947Z,102494.66
2022-08-05T20:41:43.870Z,102497.16
2022-08-05T20:44:17.678Z,102509.38
2022-08-05T20:46:46.853Z,102506.03
2022-08-05T20:49:13.823Z,102508.50
2022-08-05T20:51:40.479Z,102508.94
2022-08-05T20:54:06.960Z,102516.66
2022-08-05T20:56:42.480Z,102506.91
2022-08-05T20:59:18.853Z,102518.06
2022-08-05T21:01:46.382Z,102520.22
2022-08-05T21:04:13.812Z,102516.88
2022-08-05T21:06:45.736Z,102516.56
2022-08-05T21:09:14.361Z,102521.78
2022-08-05T21:12:06.938Z,102528.00
2022-08-05T21:14:35.077Z,102517.91
2022-08-05T21:17:05.198Z,102519.19
2022-08-05T21:19:47.006Z,102517.34
2022-08-05T21:22:18.612Z,102517.78
2022-08-05T21:24:49.053Z,102518.53
2022-08-05T21:27:18.231Z,102522.59
2022-08-05T21:29:48.578Z,102528.78
2022-08-05T21:32:20.065Z,102523.84
2022-08-05T21:35:06.957Z,102527.78
2022-08-05T21:37:33.676Z,102530.66
2022-08-05T21:40:05.827Z,102537.69
2022-08-05T21:42:44.704Z,102535.78
2022-08-05T21:45:12.220Z,102538.72
2022-08-05T21:47:57.052Z,102537.63
2022-08-05T21:50:25.925Z,102536.56
2022-08-05T21:52:52.454Z,102538.66
2022-08-05T21:55:42.689Z,102545.00
2022-08-05T21:58:06.390Z,102541.34
2022-08-05T22:00:32.979Z,102548.28
2022-08-05T22:03:00.431Z,102544.63
2022-08-05T22:05:27.373Z,102539.34
2022-08-05T22:07:58.889Z,102543.63
2022-08-05T22:10:27.308Z,102547.13
2022-08-05T22:12:59.194Z,102546.38
2022-08-05T22:16:00.780Z,102547.63
2022-08-05T22:18:25.788Z,102548.13
2022-08-05T22:20:52.876Z,102548.94
2022-08-05T22:24:02.953Z,102551.38
2022-08-05T22:26:43.224Z,102548.44
2022-08-05T22:29:17.368Z,102553.13
2022-08-05T22:31:45.330Z,102554.13
2022-08-05T22:34:12.914Z,102556.19
2022-08-05T22:36:52.304Z,102564.22
2022-08-05T22:39:21.382Z,102564.22
2022-08-05T22:42:09.518Z,102562.28
2022-08-05T22:44:34.669Z,102566.19
2022-08-05T22:47:01.184Z,102569.38
2022-08-05T22:50:19.513Z,102574.78
2022-08-05T22:52:30.370Z,102577.94
2022-08-05T22:55:00.904Z,102576.56
2022-08-05T22:57:27.347Z,102570.19
2022-08-05T23:00:03.721Z,102577.94
2022-08-05T23:02:30.428Z,102581.16
2022-08-05T23:05:01.405Z,102582.44
2022-08-05T23:07:31.474Z,102579.22
2022-08-05T23:10:01.481Z,102578.59
2022-08-05T23:12:32.374Z,102584.47
2022-08-05T23:15:01.487Z,102586.22
2022-08-05T23:17:35.106Z,102588.13
2022-08-05T23:20:16.784Z,102579.72
2022-08-05T23:22:47.123Z,102592.72
2022-08-05T23:25:17.041Z,102595.03
2022-08-05T23:28:00.428Z,102596.69
2022-08-05T23:30:29.212Z,102599.47
2022-08-05T23:32:57.811Z,102603.75
2022-08-05T23:35:25.567Z,102601.88
2022-08-05T23:38:00.564Z,102603.19
2022-08-05T23:40:27.448Z,102607.03
2022-08-05T23:42:54.062Z,102606.28
2022-08-05T23:45:20.844Z,102604.41
2022-08-05T23:47:52.040Z,102607.09
2022-08-05T23:50:20.633Z,102598.31
2022-08-05T23:52:50.057Z,102601.81
2022-08-05T23:55:18.390Z,102607.97
2022-08-05T23:57:48.806Z,102620.59
